Time;durP1;ratioP1;P1;durP2;ratioP2;P2;SDS_P1;SDS_P2;PMS_P1;PMS_P2;Temp;Humidity;BMP_temperature;BMP_pressure;BME280_temperature;BME280_humidity;BME280_pressure;Samples;Min_cycle;Max_cycle;Signal;HPM_P1;HPM_P2
2021/07/04 00:00:27;;;;;;;11.70;10.50;;;18.90;99.90;;;;;;5016906;28;20505;-79
2021/07/04 00:02:55;;;;;;;9.70;8.70;;;18.90;99.90;;;;;;4981950;28;20995;-80
2021/07/04 00:05:34;;;;;;;10.30;9.40;;;18.80;99.90;;;;;;4990974;28;20424;-80
2021/07/04 00:08:02;;;;;;;10.90;9.80;;;18.80;99.90;;;;;;4977449;28;20467;-80
2021/07/04 00:10:32;;;;;;;11.27;9.23;;;18.80;99.90;;;;;;4977093;28;20793;-81
2021/07/04 00:13:00;;;;;;;10.07;8.97;;;18.70;99.90;;;;;;4990945;28;20466;-79
2021/07/04 00:15:29;;;;;;;9.53;8.57;;;18.80;99.90;;;;;;5014631;28;20461;-77
2021/07/04 00:17:56;;;;;;;11.30;9.27;;;18.80;99.90;;;;;;5012015;28;20482;-79
2021/07/04 00:20:24;;;;;;;10.07;8.67;;;18.80;99.90;;;;;;4976796;28;20476;-81
2021/07/04 00:22:54;;;;;;;10.30;9.17;;;18.80;99.90;;;;;;4977509;28;20518;-80
2021/07/04 00:25:23;;;;;;;11.43;9.43;;;18.80;99.90;;;;;;4994863;28;20423;-78
2021/07/04 00:27:52;;;;;;;18.17;8.50;;;18.70;99.90;;;;;;5010580;28;20462;-80
2021/07/04 00:30:21;;;;;;;9.07;8.00;;;18.80;99.90;;;;;;4996252;28;20522;-79
2021/07/04 00:32:48;;;;;;;9.70;8.70;;;18.70;99.90;;;;;;5002243;28;20893;-79
2021/07/04 00:35:17;;;;;;;9.67;8.57;;;18.70;99.90;;;;;;4985795;28;20438;-81
2021/07/04 00:37:47;;;;;;;14.00;10.43;;;18.70;99.90;;;;;;4995486;28;20522;-78
2021/07/04 00:40:14;;;;;;;10.20;8.93;;;18.70;99.90;;;;;;5011037;28;20901;-80
2021/07/04 00:42:43;;;;;;;11.03;9.00;;;18.70;99.90;;;;;;4992378;28;20975;-81
2021/07/04 00:45:18;;;;;;;10.17;9.17;;;18.70;99.90;;;;;;4993073;28;20447;-80
2021/07/04 00:47:47;;;;;;;11.33;10.20;;;18.80;99.90;;;;;;5011579;28;20475;-81
2021/07/04 00:50:18;;;;;;;10.57;8.83;;;18.70;99.90;;;;;;5012418;28;20461;-79
2021/07/04 00:52:45;;;;;;;14.27;9.97;;;18.70;99.90;;;;;;5007216;28;20478;-78
2021/07/04 00:55:15;;;;;;;18.67;9.97;;;18.80;99.90;;;;;;4973740;28;20435;-81
2021/07/04 00:57:45;;;;;;;12.13;9.53;;;18.80;99.90;;;;;;4972986;28;20475;-82
2021/07/04 01:00:18;;;;;;;10.60;9.40;;;18.80;99.90;;;;;;4974592;28;20488;-79
2021/07/04 01:02:46;;;;;;;17.20;9.30;;;18.70;99.90;;;;;;4973416;28;20507;-79
2021/07/04 01:05:17;;;;;;;18.60;10.07;;;18.70;99.90;;;;;;4974660;28;20431;-79
2021/07/04 01:07:45;;;;;;;12.13;10.33;;;18.60;99.90;;;;;;4976145;28;20484;-79
2021/07/04 01:10:14;;;;;;;11.00;9.20;;;18.50;99.90;;;;;;4992779;28;20526;-81
2021/07/04 01:12:47;;;;;;;11.10;8.80;;;18.50;99.90;;;;;;5011361;28;20463;-79
2021/07/04 01:15:17;;;;;;;12.13;9.17;;;18.50;99.90;;;;;;5009460;28;20888;-80
2021/07/04 01:17:49;;;;;;;12.00;10.17;;;18.40;99.90;;;;;;5008383;28;20881;-80
2021/07/04 01:20:21;;;;;;;13.43;8.93;;;18.40;99.90;;;;;;4993871;28;20459;-78
2021/07/04 01:23:10;;;;;;;14.20;9.03;;;18.40;99.90;;;;;;5007873;28;20514;-78
2021/07/04 01:25:51;;;;;;;12.03;8.50;;;18.30;99.90;;;;;;4992141;28;20453;-79
2021/07/04 01:28:22;;;;;;;11.37;10.30;;;18.30;99.90;;;;;;4992110;28;20466;-80
2021/07/04 01:30:57;;;;;;;13.93;8.87;;;18.20;99.90;;;;;;5008722;28;20460;-80
2021/07/04 01:33:27;;;;;;;11.67;10.47;;;18.20;99.90;;;;;;5007911;28;20455;-81
2021/07/04 01:35:55;;;;;;;10.83;9.10;;;18.10;99.90;;;;;;4979418;28;20828;-81
2021/07/04 01:38:24;;;;;;;13.40;8.90;;;18.00;99.90;;;;;;5005032;28;20514;-79
2021/07/04 01:40:52;;;;;;;10.67;9.67;;;18.00;99.90;;;;;;4990302;28;20525;-79
2021/07/04 01:43:20;;;;;;;14.50;10.07;;;18.00;99.90;;;;;;4990882;28;20514;-79
2021/07/04 01:45:48;;;;;;;11.53;10.33;;;18.00;99.90;;;;;;4990322;28;20539;-80
2021/07/04 01:48:15;;;;;;;11.60;10.10;;;18.00;99.90;;;;;;4988769;28;20478;-81
2021/07/04 01:50:47;;;;;;;12.40;9.60;;;18.00;99.90;;;;;;4976289;28;20479;-79
2021/07/04 01:53:18;;;;;;;11.47;10.17;;;17.90;99.90;;;;;;4973619;28;20479;-79
2021/07/04 01:55:48;;;;;;;14.63;9.57;;;17.90;99.90;;;;;;4972519;28;20450;-79
2021/07/04 01:58:16;;;;;;;12.17;9.57;;;17.90;99.90;;;;;;4987458;28;21057;-81
2021/07/04 02:00:52;;;;;;;10.37;9.37;;;18.00;99.90;;;;;;4993644;28;20474;-81
2021/07/04 02:03:19;;;;;;;10.43;8.63;;;17.90;99.90;;;;;;5007260;28;20880;-81
2021/07/04 02:05:56;;;;;;;13.80;11.23;;;17.90;99.90;;;;;;4991337;28;20439;-80
2021/07/04 02:08:25;;;;;;;10.93;9.80;;;17.90;99.90;;;;;;4999724;28;20459;-80
2021/07/04 02:10:59;;;;;;;12.43;10.10;;;17.90;99.90;;;;;;4972484;28;20439;-79
2021/07/04 02:13:26;;;;;;;13.10;9.57;;;18.00;99.90;;;;;;4991806;28;20524;-79
2021/07/04 02:15:55;;;;;;;15.00;10.07;;;18.00;99.90;;;;;;4992300;28;20519;-80
2021/07/04 02:18:55;;;;;;;15.97;11.43;;;18.10;99.90;;;;;;4950908;28;20454;-79
2021/07/04 02:21:33;;;;;;;11.33;10.07;;;18.00;99.90;;;;;;4972745;28;20813;-79
2021/07/04 02:24:22;;;;;;;11.53;10.30;;;18.00;99.90;;;;;;4972443;28;20443;-80
2021/07/04 02:27:10;;;;;;;13.33;9.60;;;18.10;99.90;;;;;;4971338;28;21028;-80
2021/07/04 02:29:56;;;;;;;11.23;10.03;;;18.00;99.90;;;;;;4972024;28;20427;-81
2021/07/04 02:32:23;;;;;;;11.07;9.97;;;18.10;99.90;;;;;;4972732;28;20471;-79
2021/07/04 02:34:54;;;;;;;11.70;9.77;;;18.10;99.90;;;;;;4979580;28;20513;-80
2021/07/04 02:37:21;;;;;;;10.50;9.30;;;18.10;99.90;;;;;;4992041;28;20455;-79
2021/07/04 02:39:56;;;;;;;19.60;11.00;;;18.20;99.90;;;;;;4989472;28;20544;-77
2021/07/04 02:42:24;;;;;;;12.37;10.30;;;18.10;99.90;;;;;;4971603;28;20466;-80
2021/07/04 02:44:51;;;;;;;13.00;10.70;;;18.20;99.90;;;;;;4973191;28;20600;-79
2021/07/04 02:47:22;;;;;;;20.30;11.50;;;18.20;99.90;;;;;;4990807;28;20549;-79
2021/07/04 02:49:54;;;;;;;12.40;10.20;;;18.10;99.90;;;;;;4993117;28;20437;-79
2021/07/04 02:52:21;;;;;;;12.67;10.97;;;18.20;99.90;;;;;;4990969;28;20471;-79
2021/07/04 02:54:48;;;;;;;12.07;10.70;;;18.10;99.90;;;;;;5010905;28;20437;-79
2021/07/04 02:57:25;;;;;;;11.00;9.83;;;18.10;99.90;;;;;;5010297;28;20471;-80
2021/07/04 02:59:56;;;;;;;13.37;9.73;;;18.20;99.90;;;;;;4997031;28;20492;-78
2021/07/04 03:02:23;;;;;;;13.30;9.10;;;18.20;99.90;;;;;;4983551;28;20490;-79
2021/07/04 03:04:54;;;;;;;9.20;8.30;;;18.20;99.90;;;;;;4990939;28;20493;-79
2021/07/04 03:07:23;;;;;;;10.10;9.20;;;18.20;99.90;;;;;;5006619;28;20463;-81
2021/07/04 03:09:52;;;;;;;10.77;9.77;;;18.10;99.90;;;;;;4989425;28;20443;-78
2021/07/04 03:12:23;;;;;;;12.90;10.53;;;18.10;99.90;;;;;;4979547;28;20522;-82
2021/07/04 03:14:51;;;;;;;12.37;11.13;;;18.10;99.90;;;;;;5011877;28;20760;-82
2021/07/04 03:17:18;;;;;;;14.13;10.63;;;18.00;99.90;;;;;;5007714;28;20461;-80
2021/07/04 03:19:46;;;;;;;10.83;9.53;;;18.10;99.90;;;;;;4975353;28;20466;-79
2021/07/04 03:22:16;;;;;;;11.63;10.53;;;18.10;99.90;;;;;;4974353;28;20470;-79
2021/07/04 03:24:46;;;;;;;14.87;9.00;;;18.00;99.90;;;;;;5006474;28;20446;-79
2021/07/04 03:27:14;;;;;;;13.17;9.57;;;18.00;99.90;;;;;;4977198;28;20455;-77
2021/07/04 03:29:45;;;;;;;10.37;9.27;;;18.00;99.90;;;;;;4993766;28;20452;-82
2021/07/04 03:32:14;;;;;;;12.53;10.07;;;18.00;99.90;;;;;;4992300;28;20463;-82
2021/07/04 03:34:43;;;;;;;10.40;9.30;;;18.10;99.90;;;;;;4983104;28;20428;-79
2021/07/04 03:37:10;;;;;;;12.00;10.37;;;18.00;99.90;;;;;;5010249;28;20470;-80
2021/07/04 03:39:37;;;;;;;13.43;10.00;;;18.10;99.90;;;;;;4996644;28;20451;-80
2021/07/04 03:42:04;;;;;;;12.43;10.87;;;18.10;99.90;;;;;;5011622;28;20892;-79
2021/07/04 03:44:32;;;;;;;11.33;10.33;;;18.10;99.90;;;;;;4995639;28;20455;-80
2021/07/04 03:47:01;;;;;;;10.23;9.33;;;18.10;99.90;;;;;;5002154;28;20520;-79
2021/07/04 03:49:28;;;;;;;11.40;10.20;;;18.10;99.90;;;;;;5014749;28;20778;-81
2021/07/04 03:52:16;;;;;;;12.70;11.40;;;18.10;99.90;;;;;;5001459;28;20462;-80
2021/07/04 03:54:44;;;;;;;14.13;11.10;;;18.20;99.90;;;;;;4976175;28;20455;-79
2021/07/04 03:57:21;;;;;;;13.20;11.23;;;18.20;99.90;;;;;;4990127;28;20464;-79
2021/07/04 03:59:58;;;;;;;13.37;11.03;;;18.20;99.90;;;;;;4975638;28;20471;-80
2021/07/04 04:02:29;;;;;;;13.80;11.37;;;18.20;99.90;;;;;;4991767;28;20477;-77
2021/07/04 04:04:58;;;;;;;12.20;10.00;;;18.20;99.90;;;;;;4994900;28;20451;-79
2021/07/04 04:07:26;;;;;;;12.60;10.63;;;18.30;99.90;;;;;;4994980;28;20458;-78
2021/07/04 04:09:54;;;;;;;12.50;10.70;;;18.30;99.90;;;;;;4995837;28;20979;-80
2021/07/04 04:12:23;;;;;;;12.80;11.50;;;18.30;99.90;;;;;;4994545;28;20828;-79
2021/07/04 04:14:51;;;;;;;14.80;11.93;;;18.20;99.90;;;;;;5009999;28;20440;-79
2021/07/04 04:17:17;;;;;;;13.90;12.60;;;18.20;99.90;;;;;;4976255;28;20448;-79
2021/07/04 04:19:47;;;;;;;12.87;11.53;;;18.10;99.90;;;;;;4976144;28;20416;-80
2021/07/04 04:22:15;;;;;;;13.80;12.27;;;18.20;99.90;;;;;;4991543;28;20478;-80
2021/07/04 04:24:47;;;;;;;13.67;12.10;;;18.10;99.90;;;;;;4992774;28;20506;-80
2021/07/04 04:27:16;;;;;;;11.70;10.60;;;18.00;99.90;;;;;;5008830;28;20491;-82
2021/07/04 04:29:44;;;;;;;10.10;9.30;;;18.00;99.90;;;;;;5009336;28;20447;-82
2021/07/04 04:32:14;;;;;;;12.00;10.90;;;18.00;99.90;;;;;;4993599;28;20987;-80
2021/07/04 04:34:43;;;;;;;17.13;10.53;;;17.90;99.90;;;;;;4990484;28;20539;-80
2021/07/04 04:37:10;;;;;;;11.37;10.40;;;17.90;99.90;;;;;;4995919;28;20459;-80
2021/07/04 04:39:37;;;;;;;13.97;9.80;;;17.90;99.90;;;;;;4989969;28;20815;-80
2021/07/04 04:42:04;;;;;;;12.50;10.50;;;17.90;99.90;;;;;;4974071;28;20838;-79
2021/07/04 04:44:35;;;;;;;14.60;11.90;;;17.90;99.90;;;;;;4990355;28;20436;-78
2021/07/04 04:47:03;;;;;;;12.27;10.63;;;17.90;99.90;;;;;;5006053;28;20467;-79
2021/07/04 04:49:30;;;;;;;15.77;12.43;;;17.90;99.90;;;;;;4988809;28;20447;-81
2021/07/04 04:51:57;;;;;;;14.70;12.60;;;17.90;99.90;;;;;;4993195;28;20474;-81
2021/07/04 04:54:27;;;;;;;12.93;11.37;;;17.90;99.90;;;;;;5002779;28;20479;-80
2021/07/04 04:56:54;;;;;;;11.27;10.17;;;18.00;99.90;;;;;;4981108;28;20463;-80
2021/07/04 04:59:23;;;;;;;11.97;10.80;;;18.00;99.90;;;;;;4993918;28;20423;-80
2021/07/04 05:01:50;;;;;;;13.30;10.40;;;18.10;99.90;;;;;;4992468;28;20546;-80
2021/07/04 05:04:17;;;;;;;12.40;9.60;;;18.20;99.90;;;;;;4974725;28;20519;-79
2021/07/04 05:06:48;;;;;;;12.47;10.60;;;18.30;99.90;;;;;;4974398;28;20981;-80
2021/07/04 05:09:15;;;;;;;10.93;9.60;;;18.30;99.90;;;;;;4988514;28;20472;-79
2021/07/04 05:11:44;;;;;;;15.10;9.97;;;18.40;99.90;;;;;;4992095;28;20452;-82
2021/07/04 05:14:11;;;;;;;12.10;9.67;;;18.40;99.90;;;;;;4994962;28;20436;-79
2021/07/04 05:16:40;;;;;;;15.47;9.60;;;18.50;99.90;;;;;;5010208;28;20982;-77
2021/07/04 05:19:10;;;;;;;14.50;10.60;;;18.60;99.90;;;;;;5002356;28;20440;-79
2021/07/04 05:21:39;;;;;;;9.73;8.83;;;18.60;99.90;;;;;;4993439;28;20535;-81
2021/07/04 05:24:07;;;;;;;8.40;7.60;;;18.70;99.90;;;;;;5006172;28;20448;-77
2021/07/04 05:26:35;;;;;;;12.03;8.20;;;18.80;99.90;;;;;;5011216;28;20991;-77
2021/07/04 05:29:02;;;;;;;8.80;7.93;;;18.80;99.90;;;;;;5012886;28;20428;-79
2021/07/04 05:31:29;;;;;;;9.30;7.77;;;18.80;99.90;;;;;;5012732;28;20547;-79
2021/07/04 05:33:57;;;;;;;9.10;8.20;;;18.80;99.90;;;;;;4994575;28;20450;-80
2021/07/04 05:36:25;;;;;;;9.10;8.20;;;18.90;99.90;;;;;;4972257;28;20872;-77
2021/07/04 05:38:52;;;;;;;7.87;7.00;;;19.00;99.90;;;;;;4985141;28;20884;-80
2021/07/04 05:41:19;;;;;;;11.00;8.30;;;19.00;99.90;;;;;;5007972;28;20468;-79
2021/07/04 05:43:48;;;;;;;10.37;9.23;;;19.10;99.90;;;;;;4994927;28;20464;-79
2021/07/04 05:46:15;;;;;;;9.77;8.87;;;19.10;99.90;;;;;;4991287;28;20437;-81
2021/07/04 05:48:44;;;;;;;8.90;8.00;;;19.10;99.90;;;;;;4991714;28;21015;-80
2021/07/04 05:51:14;;;;;;;8.87;7.97;;;19.20;99.90;;;;;;4974056;28;20455;-79
2021/07/04 05:53:41;;;;;;;8.70;7.90;;;19.20;99.90;;;;;;4988305;28;20468;-81
2021/07/04 05:56:11;;;;;;;9.13;8.23;;;19.20;99.90;;;;;;4987621;28;20522;-80
2021/07/04 05:58:38;;;;;;;7.73;6.93;;;19.20;99.90;;;;;;4971799;28;20437;-78
2021/07/04 06:01:05;;;;;;;7.80;7.00;;;19.20;99.90;;;;;;4972953;28;20470;-81
2021/07/04 06:03:32;;;;;;;8.93;7.83;;;19.20;99.90;;;;;;4985604;28;20900;-82
2021/07/04 06:06:00;;;;;;;7.03;6.43;;;19.20;99.90;;;;;;4993074;28;20420;-80
2021/07/04 06:08:27;;;;;;;7.73;6.67;;;19.40;99.90;;;;;;4992348;28;20454;-80
2021/07/04 06:10:54;;;;;;;7.97;7.27;;;19.50;99.90;;;;;;4992955;28;20434;-81
2021/07/04 06:13:21;;;;;;;11.73;6.87;;;19.50;99.90;;;;;;5007024;28;20477;-78
2021/07/04 06:15:48;;;;;;;6.40;5.90;;;19.60;99.90;;;;;;4993011;28;20458;-81
2021/07/04 06:18:15;;;;;;;7.87;7.07;;;19.60;99.90;;;;;;4983140;28;20562;-77
2021/07/04 06:20:42;;;;;;;8.37;6.87;;;19.60;99.90;;;;;;4972010;28;20469;-77
2021/07/04 06:23:09;;;;;;;10.97;7.67;;;19.70;99.90;;;;;;4977974;28;20566;-78
2021/07/04 06:25:36;;;;;;;9.60;7.27;;;19.70;99.90;;;;;;4991325;28;20431;-78
2021/07/04 06:28:04;;;;;;;7.60;6.87;;;19.70;99.90;;;;;;4992070;28;20467;-77
2021/07/04 06:30:31;;;;;;;7.63;6.93;;;19.70;99.90;;;;;;4992533;28;20425;-78
2021/07/04 06:33:00;;;;;;;7.80;7.00;;;19.70;99.90;;;;;;4982871;28;20482;-77
2021/07/04 06:35:27;;;;;;;9.33;7.70;;;19.80;99.90;;;;;;4971961;28;20433;-76
2021/07/04 06:37:55;;;;;;;7.80;6.70;;;19.80;99.90;;;;;;4974999;28;20483;-78
2021/07/04 06:40:22;;;;;;;9.10;7.10;;;20.00;99.90;;;;;;4992554;28;20422;-76
2021/07/04 06:42:49;;;;;;;8.17;7.33;;;19.90;99.90;;;;;;4991527;28;20541;-77
2021/07/04 06:45:16;;;;;;;8.13;7.30;;;19.90;99.90;;;;;;4987803;28;20472;-77
2021/07/04 06:47:46;;;;;;;7.50;6.80;;;19.90;99.90;;;;;;4972375;28;20560;-76
2021/07/04 06:50:15;;;;;;;6.90;5.70;;;20.00;99.90;;;;;;4988243;28;20444;-77
2021/07/04 06:52:45;;;;;;;8.50;7.60;;;20.10;99.90;;;;;;4995070;28;20521;-78
2021/07/04 06:55:14;;;;;;;11.33;7.97;;;20.20;99.90;;;;;;5009212;28;20536;-77
2021/07/04 06:57:40;;;;;;;7.50;6.50;;;20.30;99.90;;;;;;5000217;28;20512;-78
2021/07/04 07:00:13;;;;;;;8.83;7.97;;;20.40;99.90;;;;;;5001631;28;20441;-77
2021/07/04 07:02:40;;;;;;;8.13;7.33;;;20.40;99.90;;;;;;5010895;28;20489;-77
2021/07/04 07:05:10;;;;;;;13.67;11.83;;;20.30;99.90;;;;;;4997268;28;20433;-76
2021/07/04 07:07:38;;;;;;;11.07;9.03;;;20.30;99.90;;;;;;4982868;28;20466;-76
2021/07/04 07:10:07;;;;;;;10.53;8.80;;;20.50;99.90;;;;;;4994575;28;20508;-78
2021/07/04 07:12:40;;;;;;;9.70;8.33;;;20.30;99.90;;;;;;4988828;28;20469;-76
2021/07/04 07:15:10;;;;;;;8.83;7.73;;;20.30;99.90;;;;;;5011772;28;20427;-77
2021/07/04 07:17:38;;;;;;;10.03;8.60;;;20.40;99.90;;;;;;5002292;28;20489;-78
2021/07/04 07:20:10;;;;;;;10.40;7.73;;;20.30;99.90;;;;;;5017370;28;20405;-77
2021/07/04 07:22:38;;;;;;;8.57;7.67;;;20.30;99.90;;;;;;5002787;28;20470;-78
2021/07/04 07:25:07;;;;;;;9.67;6.90;;;20.40;99.90;;;;;;4997665;28;20433;-77
2021/07/04 07:27:34;;;;;;;11.83;6.80;;;20.70;99.90;;;;;;5012298;28;20500;-78
2021/07/04 07:30:07;;;;;;;8.17;7.37;;;20.90;99.90;;;;;;4997104;28;20431;-79
2021/07/04 07:32:36;;;;;;;9.10;7.70;;;21.20;99.90;;;;;;4997499;28;20481;-77
2021/07/04 07:35:05;;;;;;;6.50;5.90;;;21.30;99.90;;;;;;4998512;28;20956;-78
2021/07/04 07:37:32;;;;;;;9.60;7.07;;;21.50;99.90;;;;;;4997176;28;21021;-75
2021/07/04 07:39:59;;;;;;;9.37;7.80;;;21.80;99.90;;;;;;4980199;28;20465;-79
2021/07/04 07:42:26;;;;;;;7.93;7.17;;;21.80;99.90;;;;;;5001274;28;20486;-80
2021/07/04 07:44:53;;;;;;;8.23;7.13;;;22.10;99.90;;;;;;5013869;28;21015;-76
2021/07/04 07:47:23;;;;;;;17.10;13.33;;;22.50;99.90;;;;;;5000534;28;20456;-75
2021/07/04 07:49:50;;;;;;;8.43;7.63;;;22.50;99.90;;;;;;5016182;28;20456;-76
2021/07/04 07:52:16;;;;;;;8.07;7.27;;;22.50;99.90;;;;;;5016949;28;20470;-75
2021/07/04 07:54:43;;;;;;;7.37;6.73;;;22.60;99.90;;;;;;4998237;28;20443;-78
2021/07/04 07:57:12;;;;;;;7.33;6.40;;;22.70;99.90;;;;;;4995338;28;20909;-77
2021/07/04 07:59:42;;;;;;;9.30;8.07;;;22.80;99.90;;;;;;4993006;28;20435;-76
2021/07/04 08:02:09;;;;;;;7.67;6.97;;;22.80;99.90;;;;;;5011617;28;20470;-77
2021/07/04 08:04:38;;;;;;;12.37;7.17;;;22.80;99.90;;;;;;5010061;28;20469;-79
2021/07/04 08:07:05;;;;;;;9.03;6.97;;;22.70;99.90;;;;;;4991248;28;20836;-77
2021/07/04 08:09:35;;;;;;;8.67;6.63;;;22.70;99.90;;;;;;4989083;28;20538;-77
2021/07/04 08:12:02;;;;;;;9.53;7.20;;;22.80;99.90;;;;;;4981619;28;20468;-78
2021/07/04 08:14:37;;;;;;;7.83;7.00;;;22.70;99.90;;;;;;4978410;28;20777;-76
2021/07/04 08:17:04;;;;;;;8.47;6.27;;;22.80;99.90;;;;;;4985303;28;20469;-76
2021/07/04 08:19:31;;;;;;;6.83;6.13;;;23.00;99.90;;;;;;4958695;28;20453;-76
2021/07/04 08:21:58;;;;;;;9.37;7.13;;;23.10;99.90;;;;;;4968448;28;20471;-78
2021/07/04 08:24:24;;;;;;;10.07;7.60;;;23.20;99.90;;;;;;5002019;28;20492;-77
2021/07/04 08:26:53;;;;;;;10.83;8.13;;;23.40;99.90;;;;;;5009864;28;21174;-78
2021/07/04 08:29:21;;;;;;;8.93;7.67;;;23.40;99.90;;;;;;4995750;28;20432;-77
2021/07/04 08:31:49;;;;;;;7.93;7.13;;;23.30;99.90;;;;;;4995380;28;20468;-77
2021/07/04 08:34:16;;;;;;;8.40;7.60;;;23.40;99.90;;;;;;4981218;28;20445;-77
2021/07/04 08:36:43;;;;;;;6.37;5.63;;;23.30;99.90;;;;;;4975551;28;20487;-77
2021/07/04 08:39:10;;;;;;;7.37;6.67;;;23.30;99.90;;;;;;4988783;28;20440;-78
2021/07/04 08:41:37;;;;;;;6.90;6.20;;;23.20;99.90;;;;;;4993574;28;20484;-77
2021/07/04 08:44:09;;;;;;;7.23;6.43;;;23.20;99.90;;;;;;4995688;28;21021;-77
2021/07/04 08:46:44;;;;;;;8.60;7.80;;;23.10;99.90;;;;;;4983270;28;20506;-79
2021/07/04 08:49:14;;;;;;;7.77;7.03;;;23.00;99.90;;;;;;4975493;28;20476;-77
2021/07/04 08:51:43;;;;;;;7.60;6.90;;;22.90;99.90;;;;;;4973924;28;20458;-77
2021/07/04 08:54:10;;;;;;;7.27;6.57;;;22.70;99.90;;;;;;4989882;28;20451;-77
2021/07/04 08:56:37;;;;;;;6.80;6.20;;;22.70;99.90;;;;;;4988325;28;20471;-76
2021/07/04 08:59:04;;;;;;;7.33;6.30;;;22.70;99.90;;;;;;5004164;28;20428;-77
2021/07/04 09:01:31;;;;;;;7.23;6.63;;;22.60;99.90;;;;;;4993118;28;20488;-76
2021/07/04 09:04:19;;;;;;;9.37;6.60;;;22.50;99.90;;;;;;4988234;28;20446;-77
2021/07/04 09:06:52;;;;;;;7.10;6.40;;;22.50;99.90;;;;;;4973854;28;20499;-76
2021/07/04 09:09:27;;;;;;;6.90;6.23;;;22.50;99.90;;;;;;5001171;28;20512;-76
2021/07/04 09:12:02;;;;;;;8.73;6.90;;;22.40;99.90;;;;;;4988726;28;20827;-78
2021/07/04 09:14:39;;;;;;;9.00;6.77;;;22.30;99.90;;;;;;4973647;28;20426;-78
2021/07/04 09:17:35;;;;;;;8.20;7.30;;;22.30;99.90;;;;;;4998681;28;20471;-80
2021/07/04 09:20:11;;;;;;;9.30;7.20;;;22.20;99.90;;;;;;4996263;28;20422;-83
2021/07/04 09:22:43;;;;;;;8.83;7.23;;;22.10;99.90;;;;;;5013266;28;20466;-80
2021/07/04 09:25:10;;;;;;;13.17;8.93;;;22.10;99.90;;;;;;5010209;28;20500;-82
2021/07/04 09:27:43;;;;;;;12.27;8.60;;;22.10;99.90;;;;;;4993736;28;20469;-80
2021/07/04 09:30:13;;;;;;;10.03;7.80;;;21.90;99.90;;;;;;5009564;28;20507;-79
2021/07/04 09:32:46;;;;;;;10.83;8.40;;;21.80;99.90;;;;;;4993346;28;20461;-79
2021/07/04 09:35:19;;;;;;;9.67;8.77;;;21.80;99.90;;;;;;4992466;28;20455;-79
2021/07/04 09:37:51;;;;;;;10.00;9.10;;;21.70;99.90;;;;;;4992416;28;20471;-80
2021/07/04 09:40:22;;;;;;;9.97;8.83;;;21.60;99.90;;;;;;4991348;28;20436;-83
2021/07/04 09:43:15;;;;;;;9.30;8.43;;;21.60;99.90;;;;;;5008807;28;20479;-80
2021/07/04 09:46:05;;;;;;;9.90;9.00;;;21.60;99.90;;;;;;4993771;28;20502;-79
2021/07/04 09:48:32;;;;;;;12.30;9.63;;;21.90;99.90;;;;;;4988631;28;20489;-80
2021/07/04 09:51:11;;;;;;;9.03;7.53;;;22.10;99.90;;;;;;4989078;28;20425;-80
2021/07/04 09:53:48;;;;;;;9.70;8.87;;;22.30;99.90;;;;;;4983153;28;20549;-77
2021/07/04 09:56:26;;;;;;;9.87;8.87;;;22.50;99.90;;;;;;4994695;28;20513;-78
2021/07/04 09:58:55;;;;;;;10.03;7.50;;;22.60;99.90;;;;;;4996278;28;20427;-77
2021/07/04 10:01:39;;;;;;;9.13;8.33;;;22.60;99.90;;;;;;4995267;28;20472;-78
2021/07/04 10:04:27;;;;;;;9.87;8.87;;;22.70;99.90;;;;;;5004745;28;20443;-76
2021/07/04 10:06:55;;;;;;;7.80;7.10;;;23.00;99.90;;;;;;4974603;28;20483;-77
2021/07/04 10:09:26;;;;;;;11.30;8.33;;;23.00;99.90;;;;;;4990879;28;20454;-78
2021/07/04 10:11:53;;;;;;;10.90;8.40;;;23.10;99.90;;;;;;4975096;28;20470;-77
2021/07/04 10:14:20;;;;;;;9.97;7.77;;;23.10;99.90;;;;;;4975769;28;20428;-78
2021/07/04 10:16:48;;;;;;;8.20;7.50;;;23.10;99.90;;;;;;4975428;28;20867;-77
2021/07/04 10:19:23;;;;;;;8.07;7.37;;;23.00;99.90;;;;;;4974770;28;20442;-78
2021/07/04 10:21:55;;;;;;;8.43;7.60;;;22.90;99.90;;;;;;4973263;28;20475;-78
2021/07/04 10:24:23;;;;;;;7.37;6.70;;;22.80;99.90;;;;;;4990613;28;20781;-77
2021/07/04 10:26:53;;;;;;;5.90;5.30;;;22.90;99.90;;;;;;4992330;28;20610;-77
2021/07/04 10:29:25;;;;;;;5.50;5.00;;;23.00;99.90;;;;;;4992085;28;20415;-76
2021/07/04 10:31:53;;;;;;;4.97;4.47;;;23.00;99.90;;;;;;4992239;28;20470;-77
2021/07/04 10:34:25;;;;;;;4.60;4.10;;;22.90;99.90;;;;;;5008038;28;20470;-77
2021/07/04 10:37:06;;;;;;;4.90;4.23;;;22.80;99.90;;;;;;5011306;28;20461;-77
2021/07/04 10:39:34;;;;;;;5.17;4.27;;;22.60;99.90;;;;;;5010956;28;20441;-75
2021/07/04 10:42:07;;;;;;;5.03;4.37;;;22.60;99.90;;;;;;5011077;28;20486;-77
2021/07/04 10:44:40;;;;;;;4.80;4.30;;;22.60;99.90;;;;;;5010908;28;20430;-77
2021/07/04 10:47:23;;;;;;;6.20;5.53;;;22.60;99.90;;;;;;4994705;28;20465;-77
2021/07/04 10:49:52;;;;;;;6.40;5.80;;;22.50;99.90;;;;;;4991223;28;20440;-76
2021/07/04 10:52:36;;;;;;;6.53;5.90;;;22.40;99.90;;;;;;4991596;28;20552;-76
2021/07/04 10:55:11;;;;;;;5.60;5.10;;;22.30;99.90;;;;;;4988126;28;20466;-75
2021/07/04 10:57:50;;;;;;;6.00;5.40;;;22.20;99.90;;;;;;4972252;28;20470;-76
2021/07/04 11:00:20;;;;;;;6.50;5.90;;;22.10;99.90;;;;;;4973050;28;20437;-77
2021/07/04 11:02:54;;;;;;;8.57;6.70;;;22.00;99.90;;;;;;4980925;28;20477;-75
2021/07/04 11:05:40;;;;;;;10.13;7.20;;;22.00;99.90;;;;;;4985532;28;20436;-76
2021/07/04 11:08:11;;;;;;;8.40;7.27;;;21.90;99.90;;;;;;4989087;28;20477;-76
2021/07/04 11:10:51;;;;;;;10.00;8.30;;;21.80;99.90;;;;;;4972913;28;20515;-78
2021/07/04 11:13:18;;;;;;;9.70;8.17;;;21.70;99.90;;;;;;4987498;28;20549;-81
2021/07/04 11:15:50;;;;;;;8.50;7.70;;;21.60;99.90;;;;;;4974817;28;20434;-83
2021/07/04 11:18:21;;;;;;;8.77;7.87;;;21.50;99.90;;;;;;4972125;28;20481;-82
2021/07/04 11:20:49;;;;;;;8.53;7.43;;;21.50;99.90;;;;;;4987933;28;20547;-82
2021/07/04 11:23:20;;;;;;;9.50;7.67;;;21.50;99.90;;;;;;4979039;28;20554;-80
2021/07/04 11:26:05;;;;;;;8.50;7.60;;;21.40;99.90;;;;;;5008573;28;20412;-81
2021/07/04 11:28:51;;;;;;;7.53;6.73;;;21.50;99.90;;;;;;4993032;28;20451;-83
2021/07/04 11:31:24;;;;;;;12.23;6.93;;;21.60;99.90;;;;;;4994585;28;20422;-82
2021/07/04 11:34:01;;;;;;;8.93;6.77;;;21.70;99.90;;;;;;5012307;28;20433;-83
2021/07/04 11:36:28;;;;;;;10.67;7.90;;;21.50;99.90;;;;;;5010830;28;20454;-83
2021/07/04 11:38:58;;;;;;;8.50;7.70;;;21.40;99.90;;;;;;4991908;28;20467;-79
2021/07/04 11:41:39;;;;;;;14.93;9.33;;;21.30;99.90;;;;;;4991048;28;20874;-80
2021/07/04 11:44:10;;;;;;;10.93;7.43;;;21.20;99.90;;;;;;4977292;28;20545;-82
2021/07/04 11:46:48;;;;;;;7.00;4.07;;;21.00;99.90;;;;;;4976160;28;20497;-81
2021/07/04 11:49:18;;;;;;;7.77;3.67;;;20.60;99.90;;;;;;4976962;28;20832;-78
2021/07/04 11:51:55;;;;;;;6.20;3.10;;;20.10;99.90;;;;;;4977313;28;20553;-76
2021/07/04 11:54:21;;;;;;;4.20;1.53;;;19.70;99.90;;;;;;4992377;28;20466;-78
2021/07/04 11:56:55;;;;;;;4.20;2.13;;;19.20;99.90;;;;;;4992232;28;20511;-77
2021/07/04 11:59:27;;;;;;;3.53;2.13;;;18.90;99.90;;;;;;4974925;28;20428;-82
2021/07/04 12:01:55;;;;;;;7.20;2.30;;;18.40;99.90;;;;;;4984646;28;20462;-83
2021/07/04 12:04:39;;;;;;;4.90;2.00;;;17.80;99.90;;;;;;4985487;28;20427;-84
2021/07/04 12:07:11;;;;;;;3.50;1.53;;;17.60;99.90;;;;;;4974885;28;20960;-87
2021/07/04 12:09:49;;;;;;;3.13;1.73;;;17.50;99.90;;;;;;5010550;28;20445;-82
2021/07/04 12:12:28;;;;;;;4.20;1.60;;;17.50;99.90;;;;;;5014301;28;20477;-84
2021/07/04 12:15:06;;;;;;;7.20;2.00;;;17.60;99.90;;;;;;5014352;28;20532;-85
2021/07/04 12:17:42;;;;;;;3.80;1.60;;;17.60;99.90;;;;;;5001539;28;20488;-81
2021/07/04 12:20:11;;;;;;;10.10;5.60;;;17.70;99.90;;;;;;4974685;28;20804;-83
2021/07/04 12:22:46;;;;;;;4.80;3.43;;;17.60;99.90;;;;;;4976961;28;20479;-84
2021/07/04 12:25:30;;;;;;;7.17;3.30;;;17.60;99.90;;;;;;5013534;28;20429;-82
2021/07/04 12:28:00;;;;;;;5.73;2.17;;;17.70;99.90;;;;;;5014004;28;20449;-82
2021/07/04 12:30:32;;;;;;;4.73;2.50;;;17.70;99.90;;;;;;5013129;28;20437;-82
2021/07/04 12:33:17;;;;;;;1.80;1.70;;;17.80;99.90;;;;;;4985896;28;20475;-81
2021/07/04 12:35:55;;;;;;;2.93;1.73;;;17.80;99.90;;;;;;4975054;28;20489;-83
2021/07/04 12:38:30;;;;;;;4.50;2.17;;;17.80;99.90;;;;;;4982435;28;20528;-83
2021/07/04 12:41:09;;;;;;;4.37;2.70;;;17.70;99.90;;;;;;4993904;28;20835;-85
2021/07/04 12:43:49;;;;;;;3.77;1.53;;;17.70;99.90;;;;;;4994006;28;20501;-85
2021/07/04 12:46:17;;;;;;;3.33;2.20;;;17.60;99.90;;;;;;5006783;28;20464;-83
2021/07/04 12:48:51;;;;;;;2.83;1.50;;;17.50;99.90;;;;;;4975261;28;20431;-85
2021/07/04 12:51:39;;;;;;;2.00;0.93;;;17.50;99.90;;;;;;4989847;28;20502;-82
2021/07/04 12:54:26;;;;;;;1.03;0.90;;;17.30;99.90;;;;;;4974868;28;20959;-84
2021/07/04 12:56:56;;;;;;;1.80;0.80;;;17.10;99.90;;;;;;4973367;28;20462;-83
2021/07/04 12:59:36;;;;;;;1.07;0.67;;;16.90;99.90;;;;;;4986187;28;20504;-83